Time;durP1;ratioP1;P1;durP2;ratioP2;P2;SDS_P1;SDS_P2;PMS_P1;PMS_P2;Temp;Humidity;BMP_temperature;BMP_pressure;BME280_temperature;BME280_humidity;BME280_pressure;Samples;Min_cycle;Max_cycle;Signal;HPM_P1;HPM_P2
2023/07/26 00:02:56;;;;;;;12.10;5.65;;;;;;;;;;10172447;28;20867;-71
2023/07/26 00:07:53;;;;;;;6.85;5.50;;;;;;;;;;10181861;28;20069;-70
2023/07/26 00:12:49;;;;;;;8.00;5.43;;;;;;;;;;10169008;28;20058;-72
2023/07/26 00:17:45;;;;;;;8.70;5.15;;;;;;;;;;10180123;28;20049;-72
2023/07/26 00:22:41;;;;;;;7.90;5.70;;;;;;;;;;10170222;28;20049;-70
2023/07/26 00:27:38;;;;;;;6.75;5.03;;;;;;;;;;10178437;28;20049;-72
2023/07/26 00:32:34;;;;;;;8.80;5.95;;;;;;;;;;10176079;28;20440;-71
2023/07/26 00:37:30;;;;;;;7.10;5.72;;;;;;;;;;10167567;28;20053;-69
2023/07/26 00:42:27;;;;;;;6.68;5.13;;;;;;;;;;10174553;28;20098;-72
2023/07/26 00:47:23;;;;;;;8.00;5.90;;;;;;;;;;10172197;28;20100;-72
2023/07/26 00:52:22;;;;;;;6.30;5.70;;;;;;;;;;10170329;28;20415;-71
2023/07/26 00:57:18;;;;;;;6.60;5.30;;;;;;;;;;10171909;28;20056;-71
2023/07/26 01:02:14;;;;;;;8.35;5.07;;;;;;;;;;10179642;28;20049;-72
2023/07/26 01:19:07;;;;;;;9.18;5.10;;;;;;;;;;10169683;28;20113;-72
2023/07/26 01:24:03;;;;;;;6.55;4.88;;;;;;;;;;10175842;28;20080;-71
2023/07/26 01:29:00;;;;;;;6.72;5.07;;;;;;;;;;10165593;28;20541;-71
2023/07/26 01:33:56;;;;;;;7.53;5.20;;;;;;;;;;10150715;28;20054;-73
2023/07/26 01:38:53;;;;;;;7.35;4.85;;;;;;;;;;10170880;28;20057;-73
2023/07/26 01:43:49;;;;;;;5.70;5.13;;;;;;;;;;10181441;28;20115;-73
2023/07/26 01:48:46;;;;;;;8.48;5.30;;;;;;;;;;10173639;28;20100;-73
2023/07/26 01:53:43;;;;;;;9.75;5.18;;;;;;;;;;10175184;28;20676;-72
2023/07/26 01:58:39;;;;;;;6.05;5.15;;;;;;;;;;10169375;28;20049;-71
2023/07/26 02:09:10;;;;;;;6.32;5.30;;;;;;;;;;10168595;28;20050;-70
2023/07/26 02:14:07;;;;;;;10.23;5.38;;;;;;;;;;10174638;28;20525;-70
2023/07/26 02:19:03;;;;;;;6.07;5.47;;;;;;;;;;10171579;28;20092;-70
2023/07/26 02:23:59;;;;;;;6.00;5.32;;;;;;;;;;10172075;28;20069;-70
2023/07/26 02:28:56;;;;;;;7.70;6.15;;;;;;;;;;10178095;28;20090;-74
2023/07/26 02:33:52;;;;;;;5.43;4.93;;;;;;;;;;10167149;28;20064;-74
2023/07/26 02:38:48;;;;;;;9.02;5.55;;;;;;;;;;10173161;28;20054;-73
2023/07/26 02:43:45;;;;;;;6.30;5.45;;;;;;;;;;10181218;28;20156;-70
2023/07/26 02:48:41;;;;;;;5.75;5.15;;;;;;;;;;10157711;28;20053;-70
2023/07/26 02:53:37;;;;;;;8.13;5.80;;;;;;;;;;10179718;28;20073;-70
2023/07/26 02:58:34;;;;;;;6.85;6.13;;;;;;;;;;10178820;28;20050;-71
2023/07/26 03:03:30;;;;;;;9.05;6.28;;;;;;;;;;10181635;28;20107;-71
2023/07/26 03:08:26;;;;;;;6.88;5.70;;;;;;;;;;10183972;28;20400;-73
2023/07/26 03:13:23;;;;;;;10.77;7.05;;;;;;;;;;10178745;28;20080;-72
2023/07/26 03:18:19;;;;;;;7.80;6.53;;;;;;;;;;10184029;28;20412;-73
2023/07/26 03:23:15;;;;;;;7.00;6.40;;;;;;;;;;10183268;28;20080;-69
2023/07/26 03:28:12;;;;;;;10.23;6.80;;;;;;;;;;10173515;28;20050;-73
2023/07/26 03:33:08;;;;;;;6.63;5.90;;;;;;;;;;10173946;28;20432;-73
2023/07/26 03:38:05;;;;;;;7.43;6.72;;;;;;;;;;10175024;28;20045;-72
2023/07/26 03:43:02;;;;;;;9.82;7.03;;;;;;;;;;10181881;28;20160;-72
2023/07/26 03:53:30;;;;;;;8.20;6.57;;;;;;;;;;10184027;23;20054;-70
2023/07/26 03:58:27;;;;;;;8.70;6.72;;;;;;;;;;10163221;28;20046;-71
2023/07/26 04:03:24;;;;;;;7.15;6.45;;;;;;;;;;10143302;28;20440;-70
2023/07/26 04:08:20;;;;;;;9.45;7.75;;;;;;;;;;10163701;22;20124;-71
2023/07/26 04:13:17;;;;;;;9.88;6.63;;;;;;;;;;10178267;28;20089;-70
2023/07/26 04:18:13;;;;;;;9.23;7.18;;;;;;;;;;10154612;28;20097;-70
2023/07/26 04:23:10;;;;;;;8.60;6.65;;;;;;;;;;10161837;28;20051;-70
2023/07/26 04:28:06;;;;;;;7.30;5.82;;;;;;;;;;10177941;28;20046;-69
2023/07/26 04:33:05;;;;;;;6.95;6.05;;;;;;;;;;10171902;28;20097;-70
2023/07/26 04:43:12;;;;;;;7.20;6.50;;;;;;;;;;10121334;23;20036;-72
2023/07/26 04:48:08;;;;;;;9.32;7.93;;;;;;;;;;10243428;28;20052;-73
2023/07/26 04:53:29;;;;;;;10.13;7.47;;;;;;;;;;10247162;28;20058;-73
2023/07/26 04:58:25;;;;;;;7.38;6.63;;;;;;;;;;10251867;28;20415;-71
2023/07/26 05:03:31;;;;;;;8.60;7.30;;;;;;;;;;10262836;28;20045;-72
2023/07/26 05:08:28;;;;;;;7.60;6.90;;;;;;;;;;10246485;28;20626;-72
2023/07/26 05:13:24;;;;;;;7.88;6.95;;;;;;;;;;10260835;28;20176;-72
2023/07/26 05:18:50;;;;;;;10.15;7.25;;;;;;;;;;10550080;22;20478;-72
2023/07/26 05:23:47;;;;;;;7.05;6.38;;;;;;;;;;10194429;28;20518;-72
2023/07/26 05:34:07;;;;;;;9.35;7.88;;;;;;;;;;10297665;23;20073;-70
2023/07/26 05:51:09;;;;;;;9.38;6.68;;;;;;;;;;9990928;29;20512;-73
2023/07/26 05:56:05;;;;;;;8.98;6.53;;;;;;;;;;9977899;29;20059;-72
2023/07/26 06:06:41;;;;;;;11.07;7.07;;;;;;;;;;11407211;22;20050;-73
2023/07/26 06:11:37;;;;;;;9.27;7.00;;;;;;;;;;10182662;28;20052;-73
2023/07/26 07:00:06;;;;;;;6.73;6.03;;;;;;;;;;11487696;23;20058;-73
2023/07/26 07:05:03;;;;;;;7.68;6.30;;;;;;;;;;10196123;28;20057;-73
2023/07/26 07:09:59;;;;;;;8.07;5.95;;;;;;;;;;10193419;28;20046;-73
2023/07/26 07:14:55;;;;;;;8.82;5.90;;;;;;;;;;10147949;28;20061;-73
2023/07/26 07:19:52;;;;;;;14.07;5.10;;;;;;;;;;10182394;28;20471;-73
2023/07/26 07:24:48;;;;;;;7.65;4.80;;;;;;;;;;10183297;28;20058;-73
2023/07/26 07:48:26;;;;;;;6.22;5.63;;;;;;;;;;10067242;28;20500;-73
2023/07/26 07:53:23;;;;;;;6.30;5.20;;;;;;;;;;10071542;28;20054;-73
2023/07/26 08:45:00;;;;;;;5.57;4.93;;;;;;;;;;2691956;22;21083;-73
2023/07/26 09:01:10;;;;;;;6.57;5.63;;;;;;;;;;10231368;22;20049;-73
2023/07/26 09:06:08;;;;;;;6.85;5.57;;;;;;;;;;10180478;28;20646;-73
2023/07/26 09:43:13;;;;;;;7.57;6.05;;;;;;;;;;10218264;28;20140;-73
2023/07/26 12:12:38;;;;;;;6.87;6.27;;;;;;;;;;11897628;22;20489;-73
2023/07/26 14:55:20;;;;;;;6.15;5.63;;;;;;;;;;10223583;28;20419;-73
2023/07/26 15:22:53;;;;;;;6.07;5.57;;;;;;;;;;10878170;22;20049;-74
2023/07/26 15:33:45;;;;;;;7.20;6.50;;;;;;;;;;12353296;22;20021;-74
2023/07/26 15:50:24;;;;;;;7.60;7.00;;;;;;;;;;10605075;22;20046;-74
2023/07/26 15:55:24;;;;;;;7.72;7.03;;;;;;;;;;10180349;28;20045;-74
2023/07/26 17:22:51;;;;;;;8.18;7.45;;;;;;;;;;10722003;22;20050;-73
2023/07/26 19:45:27;;;;;;;7.43;6.70;;;;;;;;;;10216031;23;20041;-73
2023/07/26 20:28:02;;;;;;;9.57;7.00;;;;;;;;;;10122691;28;20138;-72
2023/07/26 20:32:58;;;;;;;7.03;6.43;;;;;;;;;;10161498;28;20100;-72
2023/07/26 20:37:54;;;;;;;7.25;6.65;;;;;;;;;;10178270;28;20050;-72
2023/07/26 20:42:51;;;;;;;7.68;6.97;;;;;;;;;;10166187;28;20054;-71
2023/07/26 20:47:47;;;;;;;6.80;6.20;;;;;;;;;;10173405;28;20049;-72
2023/07/26 20:52:44;;;;;;;7.30;6.55;;;;;;;;;;10189308;28;20078;-72
2023/07/26 20:57:40;;;;;;;8.35;6.70;;;;;;;;;;10180811;28;20093;-72
2023/07/26 21:02:36;;;;;;;7.32;6.72;;;;;;;;;;10175502;28;20136;-71
2023/07/26 21:07:33;;;;;;;8.02;6.78;;;;;;;;;;10182401;28;20056;-72
2023/07/26 21:12:29;;;;;;;7.90;7.10;;;;;;;;;;10176252;28;20132;-71
2023/07/26 21:17:25;;;;;;;9.50;7.20;;;;;;;;;;10175777;28;20076;-72
2023/07/26 21:22:22;;;;;;;7.57;6.75;;;;;;;;;;10176678;28;20054;-73
2023/07/26 21:27:18;;;;;;;7.68;6.97;;;;;;;;;;10170215;28;20048;-71
2023/07/26 21:32:18;;;;;;;7.15;6.55;;;;;;;;;;10169706;28;20069;-71
2023/07/26 21:37:16;;;;;;;7.53;6.72;;;;;;;;;;10178702;28;20097;-71
2023/07/26 21:42:14;;;;;;;7.03;6.30;;;;;;;;;;10185518;28;20104;-72
2023/07/26 21:47:11;;;;;;;8.07;6.75;;;;;;;;;;10180815;28;20045;-71
2023/07/26 21:52:07;;;;;;;7.97;7.18;;;;;;;;;;10179260;28;20053;-70
2023/07/26 21:57:09;;;;;;;8.43;7.82;;;;;;;;;;10169428;28;20088;-70
2023/07/26 22:02:05;;;;;;;8.00;7.20;;;;;;;;;;10174001;28;20149;-72
2023/07/26 22:07:02;;;;;;;8.10;7.25;;;;;;;;;;10167851;28;20142;-73
2023/07/26 22:12:03;;;;;;;9.23;8.52;;;;;;;;;;10178736;28;20536;-73
2023/07/26 22:16:59;;;;;;;8.43;7.80;;;;;;;;;;10173831;28;20061;-73
2023/07/26 22:21:55;;;;;;;9.00;8.30;;;;;;;;;;10184960;28;20454;-73
2023/07/26 22:26:52;;;;;;;8.38;7.78;;;;;;;;;;10177279;28;20127;-72
2023/07/26 22:31:51;;;;;;;8.75;8.15;;;;;;;;;;10172076;28;20057;-70
2023/07/26 22:36:47;;;;;;;8.70;8.10;;;;;;;;;;10180234;28;20085;-71
2023/07/26 22:41:44;;;;;;;8.90;8.20;;;;;;;;;;10182385;28;20137;-71
2023/07/26 22:46:40;;;;;;;7.78;7.18;;;;;;;;;;10176368;28;20140;-69
2023/07/26 22:51:37;;;;;;;10.10;9.35;;;;;;;;;;10177286;28;20073;-71
2023/07/26 22:56:33;;;;;;;9.65;8.80;;;;;;;;;;10177153;28;20042;-72
2023/07/26 23:01:29;;;;;;;9.45;8.68;;;;;;;;;;10183290;28;20096;-72
2023/07/26 23:06:26;;;;;;;9.02;8.38;;;;;;;;;;10181109;28;20046;-70
2023/07/26 23:11:22;;;;;;;9.18;8.38;;;;;;;;;;10187634;28;20061;-72
2023/07/26 23:16:19;;;;;;;9.65;8.95;;;;;;;;;;10184987;28;20057;-72
2023/07/26 23:21:15;;;;;;;8.85;8.15;;;;;;;;;;10187446;28;20069;-71
2023/07/26 23:26:11;;;;;;;9.30;8.57;;;;;;;;;;10190796;28;20050;-71
2023/07/26 23:31:10;;;;;;;10.43;9.63;;;;;;;;;;10182177;28;20057;-72
2023/07/26 23:36:07;;;;;;;10.80;10.00;;;;;;;;;;10181561;28;20053;-71
2023/07/26 23:41:04;;;;;;;10.88;10.07;;;;;;;;;;10190903;28;20136;-71
2023/07/26 23:46:00;;;;;;;9.95;9.25;;;;;;;;;;10182258;28;20050;-71
2023/07/26 23:50:57;;;;;;;10.00;9.30;;;;;;;;;;10189693;28;20878;-72
2023/07/26 23:55:53;;;;;;;10.35;9.57;;;;;;;;;;10186163;28;20074;-71
